METAR Data
IDs: Format: Raw Decoded Include TAF

Data at: 0804 UTC 01 Aug 2021

EDSB 010750Z 21010KT 9000 FEW010 SCT053 BKN074 16/14 Q1011